Terminal Aerodrome Forecast
Issued by NWS

Home | Current Version | Previous Version | Text Only | Print | Product List | Glossary On
Versions: 1 2 3 4 5 6 7 8 9 10 11 12 13 14 15 16 17 18 19
000
FTUS43 KMQT 290500
TAFIWD
TAF
KIWD 290533Z 2906/3006 16005KT P6SM VCSH SCT025 OVC040
      TEMPO 2906/2907 5SM -SHSN BKN015
     FM291200 17007KT P6SM BKN020
     FM292100 21007KT P6SM BKN025
     FM300100 26007KT P6SM -FZDZ OVC010
      AMD LTD TO CLD VIS AND WIND=

USA.gov is the U.S. government's official web portal to all federal, state and local government web resources and services.